Time;durP1;ratioP1;P1;durP2;ratioP2;P2;SDS_P1;SDS_P2;PMS_P1;PMS_P2;Temp;Humidity;BMP_temperature;BMP_pressure;BME280_temperature;BME280_humidity;BME280_pressure;Samples;Min_cycle;Max_cycle;Signal;HPM_P1;HPM_P2
2020/12/19 00:02:18;;;;;;;4.25;3.20;;;8.90;99.90;;;;;;5134298;27;20221;-80
2020/12/19 00:04:44;;;;;;;3.90;3.00;;;8.90;99.90;;;;;;5128618;27;20215;-77
2020/12/19 00:07:11;;;;;;;4.70;3.33;;;8.80;99.90;;;;;;5125077;27;20262;-77
2020/12/19 00:09:38;;;;;;;3.40;3.10;;;8.80;99.90;;;;;;5113906;27;20201;-79
2020/12/19 00:12:05;;;;;;;3.80;3.13;;;8.80;99.90;;;;;;5113287;27;20205;-78
2020/12/19 00:14:32;;;;;;;3.50;3.20;;;8.80;99.90;;;;;;5114313;28;20216;-78
2020/12/19 00:16:59;;;;;;;3.22;2.60;;;8.70;99.90;;;;;;5115561;27;20193;-78
2020/12/19 00:19:25;;;;;;;3.88;3.05;;;8.70;99.90;;;;;;5116467;27;20250;-79
2020/12/19 00:21:51;;;;;;;3.13;2.83;;;8.80;99.90;;;;;;5113718;28;20572;-77
2020/12/19 00:24:18;;;;;;;4.20;3.80;;;8.70;99.90;;;;;;5114501;27;20623;-80
2020/12/19 00:26:45;;;;;;;3.20;2.80;;;8.70;99.90;;;;;;5123683;27;20460;-80
2020/12/19 00:29:12;;;;;;;2.70;2.50;;;8.70;99.90;;;;;;5113240;28;20205;-79
2020/12/19 00:31:40;;;;;;;4.18;3.78;;;8.80;99.90;;;;;;5130553;27;20221;-81
2020/12/19 00:34:08;;;;;;;3.92;3.55;;;8.80;99.90;;;;;;5113335;28;20606;-80
2020/12/19 00:36:35;;;;;;;4.05;3.60;;;8.70;99.90;;;;;;5115642;27;20208;-78
2020/12/19 00:39:02;;;;;;;4.82;3.40;;;8.80;99.90;;;;;;5119659;27;20197;-79
2020/12/19 00:41:28;;;;;;;3.25;2.60;;;8.80;99.90;;;;;;5113559;28;20197;-79
2020/12/19 00:43:55;;;;;;;3.25;2.92;;;8.80;99.90;;;;;;5113764;28;20513;-78
2020/12/19 00:46:22;;;;;;;3.40;3.10;;;8.80;99.90;;;;;;5129655;27;20646;-78
2020/12/19 00:48:49;;;;;;;8.98;3.30;;;8.80;99.90;;;;;;5133532;27;20192;-79
2020/12/19 00:51:16;;;;;;;3.45;3.15;;;8.80;99.90;;;;;;5133012;27;20196;-80
2020/12/19 00:53:42;;;;;;;3.95;3.30;;;8.80;99.90;;;;;;5132830;27;20588;-79
2020/12/19 00:56:17;;;;;;;3.20;2.90;;;8.80;99.90;;;;;;5121905;27;20537;-79
2020/12/19 00:58:43;;;;;;;3.17;2.85;;;8.70;99.90;;;;;;5133644;27;20203;-80
2020/12/19 01:01:11;;;;;;;4.57;3.90;;;8.70;99.90;;;;;;5131346;27;20192;-79
2020/12/19 01:03:37;;;;;;;3.25;2.95;;;8.70;99.90;;;;;;5114358;27;20196;-78
2020/12/19 01:06:04;;;;;;;3.80;3.35;;;8.70;99.90;;;;;;5112933;27;20533;-79
2020/12/19 01:08:30;;;;;;;4.25;3.75;;;8.70;99.90;;;;;;5113442;28;20200;-78
2020/12/19 01:10:56;;;;;;;4.68;3.72;;;8.70;99.90;;;;;;5129313;27;20188;-77
2020/12/19 01:13:22;;;;;;;4.95;4.13;;;8.70;99.90;;;;;;5133120;27;20245;-77
2020/12/19 01:15:49;;;;;;;3.90;3.53;;;8.70;99.90;;;;;;5132216;27;20219;-77
2020/12/19 01:18:18;;;;;;;3.10;2.80;;;8.70;99.90;;;;;;5118328;27;20204;-77
2020/12/19 01:20:44;;;;;;;4.65;2.80;;;8.70;99.90;;;;;;5113151;28;20192;-77
2020/12/19 01:23:10;;;;;;;4.00;3.42;;;8.70;99.90;;;;;;5115529;27;20788;-77
2020/12/19 01:25:37;;;;;;;4.85;3.40;;;8.70;99.90;;;;;;5112956;28;20192;-77
2020/12/19 01:28:03;;;;;;;4.20;3.80;;;8.70;99.90;;;;;;5112994;27;20197;-77
2020/12/19 01:30:29;;;;;;;4.30;3.30;;;8.70;99.90;;;;;;5116496;28;20195;-77
2020/12/19 01:32:56;;;;;;;4.47;3.63;;;8.70;99.90;;;;;;5125366;27;20192;-77
2020/12/19 01:35:23;;;;;;;3.45;3.15;;;8.70;99.90;;;;;;5112151;28;20339;-78
2020/12/19 01:37:49;;;;;;;4.43;3.55;;;8.70;99.90;;;;;;5112503;27;20205;-77
2020/12/19 01:40:15;;;;;;;4.07;3.67;;;8.70;99.90;;;;;;5113922;27;20234;-77
2020/12/19 01:42:42;;;;;;;4.53;3.45;;;8.70;99.90;;;;;;5133105;27;20203;-77
2020/12/19 01:45:08;;;;;;;5.25;3.50;;;8.70;99.90;;;;;;5131408;27;20205;-77
2020/12/19 01:47:35;;;;;;;4.75;3.35;;;8.60;99.90;;;;;;5120543;27;20199;-77
2020/12/19 01:50:04;;;;;;;7.55;4.10;;;8.60;99.90;;;;;;5130757;27;20870;-77
2020/12/19 01:52:32;;;;;;;4.60;4.05;;;8.60;99.90;;;;;;5112620;28;20195;-79
2020/12/19 01:55:00;;;;;;;4.03;3.63;;;8.60;99.90;;;;;;5112576;28;20211;-79
2020/12/19 01:57:30;;;;;;;3.97;3.38;;;8.60;99.90;;;;;;5132394;27;20287;-78
2020/12/19 01:59:57;;;;;;;4.60;3.53;;;8.60;99.90;;;;;;5132229;27;20199;-79
2020/12/19 02:02:24;;;;;;;4.28;3.03;;;8.60;99.90;;;;;;5121978;27;20200;-81
2020/12/19 02:04:51;;;;;;;5.00;4.10;;;8.60;99.90;;;;;;5114567;28;20240;-77
2020/12/19 02:07:18;;;;;;;4.25;3.30;;;8.60;99.90;;;;;;5132908;28;20200;-80
2020/12/19 02:09:45;;;;;;;3.75;3.42;;;8.60;99.90;;;;;;5133164;27;20200;-79
2020/12/19 02:12:12;;;;;;;4.30;3.67;;;8.60;99.90;;;;;;5132060;27;20249;-80
2020/12/19 02:14:39;;;;;;;3.85;3.22;;;8.60;99.90;;;;;;5118022;27;20209;-80
2020/12/19 02:17:07;;;;;;;4.38;3.40;;;8.60;99.90;;;;;;5112156;28;20211;-77
2020/12/19 02:19:35;;;;;;;7.30;3.90;;;8.60;99.90;;;;;;5114155;28;20245;-77
2020/12/19 02:22:02;;;;;;;3.55;3.25;;;8.50;99.90;;;;;;5112245;27;20201;-76
2020/12/19 02:24:29;;;;;;;3.60;3.30;;;8.50;99.90;;;;;;5127795;28;20199;-77
2020/12/19 02:26:56;;;;;;;4.07;3.67;;;8.60;99.90;;;;;;5132878;27;20537;-79
2020/12/19 02:29:24;;;;;;;4.50;3.67;;;8.50;99.90;;;;;;5120679;27;20226;-78
2020/12/19 02:31:52;;;;;;;4.03;3.70;;;8.50;99.90;;;;;;5122770;28;20204;-78
2020/12/19 02:34:18;;;;;;;4.10;3.10;;;8.50;99.90;;;;;;5119312;27;20262;-78
2020/12/19 02:36:44;;;;;;;4.07;3.38;;;8.50;99.90;;;;;;5132254;27;20196;-78
2020/12/19 02:39:11;;;;;;;4.00;3.60;;;8.50;99.90;;;;;;5132516;27;20207;-78
2020/12/19 02:41:39;;;;;;;3.72;3.33;;;8.50;99.90;;;;;;5126338;27;20312;-80
2020/12/19 02:44:08;;;;;;;5.30;3.45;;;8.50;99.90;;;;;;5131578;27;20199;-79
2020/12/19 02:46:34;;;;;;;4.03;3.65;;;8.50;99.90;;;;;;5112395;27;20346;-80
2020/12/19 02:49:01;;;;;;;5.05;4.25;;;8.50;99.90;;;;;;5115805;28;20197;-79
2020/12/19 02:51:27;;;;;;;4.05;3.70;;;8.50;99.90;;;;;;5115928;28;20201;-81
2020/12/19 02:53:53;;;;;;;5.22;3.47;;;8.50;99.90;;;;;;5122761;27;20605;-81
2020/12/19 02:56:20;;;;;;;4.75;3.60;;;8.50;99.90;;;;;;5116915;27;20201;-82
2020/12/19 02:58:47;;;;;;;4.18;3.65;;;8.50;99.90;;;;;;5135061;27;20643;-81
2020/12/19 03:01:13;;;;;;;4.43;3.42;;;8.50;99.90;;;;;;5128188;27;20201;-81
2020/12/19 03:03:39;;;;;;;4.38;3.70;;;8.50;99.90;;;;;;5119428;27;20209;-82
2020/12/19 03:06:06;;;;;;;4.28;3.88;;;8.50;99.90;;;;;;5134556;27;20188;-81
2020/12/19 03:08:32;;;;;;;4.78;3.80;;;8.50;99.90;;;;;;5130246;27;20201;-81
2020/12/19 03:10:58;;;;;;;3.83;3.45;;;8.50;99.90;;;;;;5115760;28;20208;-82
2020/12/19 03:13:25;;;;;;;4.30;3.85;;;8.50;99.90;;;;;;5115310;27;20231;-81
2020/12/19 03:15:52;;;;;;;4.80;4.30;;;8.40;99.90;;;;;;5115463;27;20219;-80
2020/12/19 03:18:18;;;;;;;4.55;4.10;;;8.50;99.90;;;;;;5115130;27;20204;-80
2020/12/19 03:20:44;;;;;;;4.00;3.63;;;8.40;99.90;;;;;;5115475;28;20205;-81
2020/12/19 03:23:11;;;;;;;5.47;4.15;;;8.40;99.90;;;;;;5114992;27;20201;-80
2020/12/19 03:25:37;;;;;;;4.18;3.53;;;8.40;99.90;;;;;;5122980;27;20193;-81
2020/12/19 03:28:04;;;;;;;6.05;4.50;;;8.40;99.90;;;;;;5120980;27;20920;-80
2020/12/19 03:30:30;;;;;;;3.97;3.55;;;8.30;99.90;;;;;;5127869;27;20211;-79
2020/12/19 03:32:57;;;;;;;5.38;3.50;;;8.30;99.90;;;;;;5135451;27;20196;-79
2020/12/19 03:35:24;;;;;;;4.78;4.00;;;8.40;99.90;;;;;;5122918;27;20215;-78
2020/12/19 03:37:51;;;;;;;5.57;3.60;;;8.30;99.90;;;;;;5118839;27;20192;-79
2020/12/19 03:40:18;;;;;;;4.32;3.92;;;8.40;99.90;;;;;;5119268;27;20243;-79
2020/12/19 03:42:45;;;;;;;5.13;4.10;;;8.30;99.90;;;;;;5114637;28;20200;-79
2020/12/19 03:45:11;;;;;;;4.00;3.38;;;8.30;99.90;;;;;;5120978;27;20192;-79
2020/12/19 03:47:37;;;;;;;5.15;3.70;;;8.30;99.90;;;;;;5116303;27;20205;-79
2020/12/19 03:50:06;;;;;;;5.20;4.15;;;8.30;99.90;;;;;;5135446;27;20241;-79
2020/12/19 03:52:32;;;;;;;4.20;3.15;;;8.30;99.90;;;;;;5135156;27;20196;-79
2020/12/19 03:54:58;;;;;;;4.40;4.00;;;8.30;99.90;;;;;;5124939;27;20201;-80
2020/12/19 03:57:25;;;;;;;5.60;3.20;;;8.30;99.90;;;;;;5124820;27;20204;-80
2020/12/19 03:59:51;;;;;;;4.30;3.38;;;8.30;99.90;;;;;;5113871;28;20250;-79
2020/12/19 04:02:17;;;;;;;3.35;3.05;;;8.40;99.90;;;;;;5119471;27;20193;-81
2020/12/19 04:04:43;;;;;;;3.30;3.00;;;8.40;99.90;;;;;;5128184;27;20197;-81
2020/12/19 04:07:11;;;;;;;4.00;3.53;;;8.40;99.90;;;;;;5134969;27;20196;-81
2020/12/19 04:09:38;;;;;;;4.57;3.42;;;8.40;99.90;;;;;;5115990;27;20200;-80
2020/12/19 04:12:04;;;;;;;5.13;3.50;;;8.30;99.90;;;;;;5114235;28;20672;-81
2020/12/19 04:14:37;;;;;;;3.60;3.13;;;8.30;99.90;;;;;;5119291;27;20674;-81
2020/12/19 04:17:05;;;;;;;3.33;3.03;;;8.30;99.90;;;;;;5114283;27;20206;-81
2020/12/19 04:19:31;;;;;;;4.00;3.60;;;8.30;99.90;;;;;;5131172;27;20543;-80
2020/12/19 04:21:58;;;;;;;4.65;2.67;;;8.30;99.90;;;;;;5127925;27;20196;-80
2020/12/19 04:24:26;;;;;;;4.22;3.42;;;8.30;99.90;;;;;;5128146;27;20193;-80
2020/12/19 04:26:52;;;;;;;4.68;4.03;;;8.30;99.90;;;;;;5113829;27;20197;-81
2020/12/19 04:29:19;;;;;;;5.20;4.15;;;8.20;99.90;;;;;;5115351;27;20208;-80
2020/12/19 04:31:45;;;;;;;3.42;3.00;;;8.30;99.90;;;;;;5113678;28;20204;-81
2020/12/19 04:34:11;;;;;;;4.78;3.25;;;8.20;99.90;;;;;;5119278;27;20192;-80
2020/12/19 04:36:37;;;;;;;5.20;3.45;;;8.20;99.90;;;;;;5113533;28;20200;-80
2020/12/19 04:39:04;;;;;;;3.65;3.25;;;8.20;99.90;;;;;;5122315;27;20199;-80
2020/12/19 04:41:33;;;;;;;4.63;3.13;;;8.20;99.90;;;;;;5114134;28;20192;-80
2020/12/19 04:44:01;;;;;;;3.70;3.08;;;8.20;99.90;;;;;;5118102;27;20188;-81
2020/12/19 04:46:29;;;;;;;3.95;3.65;;;8.20;99.90;;;;;;5114240;27;20193;-80
2020/12/19 04:48:57;;;;;;;3.30;2.95;;;8.20;99.90;;;;;;5124669;27;20189;-80
2020/12/19 04:51:25;;;;;;;3.20;2.92;;;8.20;99.90;;;;;;5133293;27;20344;-79
2020/12/19 04:53:51;;;;;;;3.83;3.00;;;8.20;99.90;;;;;;5131037;27;20188;-79
2020/12/19 04:56:18;;;;;;;4.38;3.97;;;8.20;99.90;;;;;;5114499;27;20661;-80
2020/12/19 04:58:45;;;;;;;3.33;3.03;;;8.20;99.90;;;;;;5124346;27;20205;-81
2020/12/19 05:01:12;;;;;;;3.78;3.13;;;8.20;99.90;;;;;;5114130;28;20695;-80
2020/12/19 05:03:39;;;;;;;3.30;3.00;;;8.20;99.90;;;;;;5113333;28;20207;-80
2020/12/19 05:06:05;;;;;;;4.95;3.45;;;8.20;99.90;;;;;;5113382;28;20261;-80
2020/12/19 05:08:32;;;;;;;4.10;3.70;;;8.20;99.90;;;;;;5114511;27;20199;-79
2020/12/19 05:10:58;;;;;;;3.55;3.25;;;8.20;99.90;;;;;;5113343;28;20196;-79
2020/12/19 05:13:25;;;;;;;3.75;3.33;;;8.20;99.90;;;;;;5113221;27;20200;-79
2020/12/19 05:15:53;;;;;;;5.68;3.17;;;8.20;99.90;;;;;;5126069;27;20215;-79
2020/12/19 05:18:20;;;;;;;3.70;3.40;;;8.20;99.90;;;;;;5127581;27;20330;-80
2020/12/19 05:20:47;;;;;;;4.72;3.08;;;8.10;99.90;;;;;;5131449;27;20188;-80
2020/12/19 05:23:15;;;;;;;4.07;3.30;;;8.20;99.90;;;;;;5132064;27;20208;-80
2020/12/19 05:25:42;;;;;;;3.55;3.25;;;8.20;99.90;;;;;;5132806;27;20194;-79
2020/12/19 05:28:08;;;;;;;3.35;3.05;;;8.20;99.90;;;;;;5122758;27;20204;-80
2020/12/19 05:30:35;;;;;;;2.92;2.72;;;8.20;99.90;;;;;;5112982;28;20218;-80
2020/12/19 05:33:02;;;;;;;4.55;3.25;;;8.10;99.90;;;;;;5113508;28;20192;-81
2020/12/19 05:35:28;;;;;;;3.75;3.28;;;8.20;99.90;;;;;;5112675;28;20205;-80
2020/12/19 05:37:59;;;;;;;3.70;3.40;;;8.10;99.90;;;;;;5121259;27;20586;-79
2020/12/19 05:40:26;;;;;;;3.88;3.10;;;8.10;99.90;;;;;;5119517;27;20229;-79
2020/12/19 05:42:53;;;;;;;5.10;4.10;;;8.10;99.90;;;;;;5122618;27;20196;-79
2020/12/19 05:45:21;;;;;;;9.85;4.38;;;8.10;99.90;;;;;;5133101;27;20188;-81
2020/12/19 05:47:48;;;;;;;3.65;3.28;;;8.10;99.90;;;;;;5124582;27;20275;-81
2020/12/19 05:50:15;;;;;;;4.70;4.13;;;8.10;99.90;;;;;;5112615;28;20216;-80
2020/12/19 05:52:42;;;;;;;4.28;3.78;;;8.10;99.90;;;;;;5121526;27;20188;-81
2020/12/19 05:55:10;;;;;;;3.50;3.20;;;8.00;99.90;;;;;;5116743;27;20216;-81
2020/12/19 05:57:37;;;;;;;4.82;4.20;;;8.10;99.90;;;;;;5124778;27;20783;-81
2020/12/19 06:00:07;;;;;;;4.30;3.40;;;8.00;99.90;;;;;;5132591;27;20210;-82
2020/12/19 06:02:35;;;;;;;4.45;4.05;;;8.00;99.90;;;;;;5123969;27;20192;-81
2020/12/19 06:05:04;;;;;;;4.15;3.80;;;8.00;99.90;;;;;;5132215;27;20636;-82
2020/12/19 06:07:36;;;;;;;4.88;4.40;;;8.00;99.90;;;;;;5124342;27;20197;-82
2020/12/19 06:10:04;;;;;;;4.60;3.65;;;8.00;99.90;;;;;;5112516;28;20200;-82
2020/12/19 06:12:41;;;;;;;4.20;3.55;;;8.10;99.90;;;;;;5122731;28;20616;-82
2020/12/19 06:15:12;;;;;;;3.80;3.50;;;8.00;99.90;;;;;;5128185;27;20203;-81
2020/12/19 06:17:48;;;;;;;4.45;3.58;;;8.00;99.90;;;;;;5132635;27;20192;-82
2020/12/19 06:20:16;;;;;;;3.53;2.92;;;7.90;99.90;;;;;;5132124;27;20188;-81
2020/12/19 06:22:43;;;;;;;5.57;3.63;;;8.00;99.90;;;;;;5115611;27;20628;-82
2020/12/19 06:25:10;;;;;;;3.90;3.50;;;8.00;99.90;;;;;;5117394;27;20192;-82
2020/12/19 06:27:41;;;;;;;4.20;3.78;;;8.00;99.90;;;;;;5116665;27;20528;-81
2020/12/19 06:30:28;;;;;;;4.25;3.85;;;8.00;99.90;;;;;;5116570;28;20201;-81
2020/12/19 06:33:12;;;;;;;3.28;2.97;;;8.00;99.90;;;;;;5129585;27;20239;-81
2020/12/19 06:35:43;;;;;;;3.92;3.55;;;7.90;99.90;;;;;;5115896;28;20213;-80
2020/12/19 06:38:11;;;;;;;5.40;4.72;;;7.90;99.90;;;;;;5116362;28;20227;-80
2020/12/19 06:40:38;;;;;;;6.53;3.90;;;8.00;99.90;;;;;;5116003;28;20232;-81
2020/12/19 06:43:12;;;;;;;4.22;3.42;;;8.00;99.90;;;;;;5115904;28;20204;-80
2020/12/19 06:45:38;;;;;;;5.78;4.03;;;7.90;99.90;;;;;;5115930;27;20185;-81
2020/12/19 06:48:32;;;;;;;4.18;3.78;;;7.90;99.90;;;;;;5114872;28;20197;-81
2020/12/19 06:51:00;;;;;;;4.75;4.15;;;7.80;99.90;;;;;;5116288;28;20185;-81
2020/12/19 06:53:29;;;;;;;3.83;3.53;;;7.90;99.90;;;;;;5115507;27;20196;-81
2020/12/19 06:55:55;;;;;;;4.20;3.80;;;7.90;99.90;;;;;;5133581;27;20239;-78
2020/12/19 06:58:29;;;;;;;7.90;4.13;;;7.90;99.90;;;;;;5136345;27;20195;-80
2020/12/19 07:00:56;;;;;;;4.68;3.78;;;7.90;99.90;;;;;;5134891;27;20200;-78
2020/12/19 07:03:39;;;;;;;6.32;5.38;;;7.90;99.90;;;;;;5132142;27;20189;-78
2020/12/19 07:06:12;;;;;;;6.30;5.32;;;7.90;99.90;;;;;;5135029;27;20199;-79
2020/12/19 07:08:40;;;;;;;6.40;4.25;;;7.90;99.90;;;;;;5136044;27;20192;-79
2020/12/19 07:11:21;;;;;;;4.68;4.18;;;7.90;99.90;;;;;;5122009;27;20272;-78
2020/12/19 07:13:51;;;;;;;5.25;4.60;;;7.80;99.90;;;;;;5135228;27;20180;-80
2020/12/19 07:16:49;;;;;;;5.25;4.10;;;7.80;99.90;;;;;;5135234;27;20232;-78
2020/12/19 07:19:21;;;;;;;5.05;3.92;;;7.70;99.90;;;;;;5127314;27;20201;-79
2020/12/19 07:21:48;;;;;;;5.22;4.43;;;7.80;99.90;;;;;;5115470;28;20196;-79
2020/12/19 07:24:15;;;;;;;5.78;4.75;;;7.80;99.90;;;;;;5118636;27;20204;-80
2020/12/19 07:26:42;;;;;;;5.07;4.13;;;7.80;99.90;;;;;;5135865;27;20200;-79
2020/12/19 07:29:20;;;;;;;4.55;4.10;;;7.70;99.90;;;;;;5134336;27;20640;-79
2020/12/19 07:31:51;;;;;;;4.82;4.32;;;7.80;99.90;;;;;;5119883;27;20189;-79
2020/12/19 07:34:18;;;;;;;5.13;3.85;;;7.80;99.90;;;;;;5128458;27;20177;-79
2020/12/19 07:36:46;;;;;;;5.18;4.68;;;7.80;99.90;;;;;;5119567;27;20196;-79
2020/12/19 07:39:14;;;;;;;5.07;4.30;;;7.80;99.90;;;;;;5115936;27;20265;-78
2020/12/19 07:41:43;;;;;;;6.45;4.70;;;7.70;99.90;;;;;;5122219;27;20248;-77
2020/12/19 07:44:16;;;;;;;5.78;4.60;;;7.70;99.90;;;;;;5134070;27;20193;-78
2020/12/19 07:46:52;;;;;;;5.35;4.85;;;7.60;99.90;;;;;;5126555;27;20282;-78
2020/12/19 07:49:30;;;;;;;7.75;5.80;;;7.70;99.90;;;;;;5114409;27;20207;-78
2020/12/19 07:52:11;;;;;;;5.20;4.10;;;7.60;99.90;;;;;;5114660;27;20189;-78
2020/12/19 07:54:39;;;;;;;4.15;3.75;;;7.50;99.90;;;;;;5119856;27;20268;-78
2020/12/19 07:57:06;;;;;;;5.10;4.15;;;7.60;99.90;;;;;;5130299;27;20196;-79
2020/12/19 07:59:34;;;;;;;5.10;4.60;;;7.50;99.90;;;;;;5117324;27;20767;-79
2020/12/19 08:02:04;;;;;;;4.00;3.60;;;7.50;99.90;;;;;;5119835;27;20226;-80
2020/12/19 08:04:31;;;;;;;5.75;4.60;;;7.50;99.90;;;;;;5114570;28;20272;-80
2020/12/19 08:06:59;;;;;;;5.40;4.85;;;7.50;99.90;;;;;;5114479;28;20198;-79
2020/12/19 08:09:26;;;;;;;10.50;5.13;;;7.50;99.90;;;;;;5114415;27;20207;-81
2020/12/19 08:11:54;;;;;;;7.43;4.55;;;7.50;99.90;;;;;;5125492;27;20679;-78
2020/12/19 08:14:22;;;;;;;5.18;4.78;;;7.50;99.90;;;;;;5134402;27;20211;-78
2020/12/19 08:16:49;;;;;;;10.52;6.65;;;7.50;99.90;;;;;;5127222;27;20188;-79
2020/12/19 08:19:22;;;;;;;17.15;8.63;;;7.40;99.90;;;;;;5117865;27;20200;-80
2020/12/19 08:21:49;;;;;;;11.38;7.43;;;7.40;99.90;;;;;;5124662;27;20189;-77
2020/12/19 08:24:16;;;;;;;16.10;9.05;;;7.40;99.90;;;;;;5119426;27;20225;-79
2020/12/19 08:26:42;;;;;;;15.27;6.68;;;7.40;99.90;;;;;;5114380;28;20250;-79
2020/12/19 08:29:09;;;;;;;10.35;7.50;;;7.50;99.90;;;;;;5129840;27;20196;-78
2020/12/19 08:31:37;;;;;;;14.93;8.63;;;7.50;99.90;;;;;;5125820;27;20220;-78
2020/12/19 08:34:05;;;;;;;10.35;7.30;;;7.50;99.90;;;;;;5114312;27;20305;-79
2020/12/19 08:36:32;;;;;;;8.75;6.82;;;7.40;99.90;;;;;;5120595;27;20262;-79
2020/12/19 08:39:18;;;;;;;13.63;7.28;;;7.50;99.90;;;;;;5127737;27;20203;-78
2020/12/19 08:41:45;;;;;;;9.68;6.50;;;7.40;99.90;;;;;;5124198;27;20636;-79
2020/12/19 08:44:26;;;;;;;9.23;7.07;;;7.50;99.90;;;;;;5120527;27;20201;-79
2020/12/19 08:47:04;;;;;;;7.75;6.63;;;7.40;99.90;;;;;;5113294;28;20196;-79
2020/12/19 08:49:31;;;;;;;11.75;6.63;;;7.40;99.90;;;;;;5128123;27;20197;-79
2020/12/19 08:51:57;;;;;;;9.70;6.35;;;7.40;99.90;;;;;;5115032;27;20661;-79
2020/12/19 08:54:23;;;;;;;10.43;6.78;;;7.40;99.90;;;;;;5114091;28;20197;-79
2020/12/19 08:56:50;;;;;;;7.85;6.18;;;7.40;99.90;;;;;;5124433;27;20193;-79
2020/12/19 08:59:26;;;;;;;8.38;5.35;;;7.40;99.90;;;;;;5133797;27;20199;-78
2020/12/19 09:01:55;;;;;;;6.72;6.03;;;7.30;99.90;;;;;;5115222;27;20188;-78
2020/12/19 09:04:22;;;;;;;7.20;6.00;;;7.40;99.90;;;;;;5113752;28;20637;-78
2020/12/19 09:06:50;;;;;;;7.15;5.78;;;7.40;99.90;;;;;;5113100;27;20200;-79
2020/12/19 09:09:18;;;;;;;8.07;5.75;;;7.40;99.90;;;;;;5113345;28;20250;-78
2020/12/19 09:11:44;;;;;;;6.75;5.50;;;7.30;99.90;;;;;;5121059;27;20204;-79
2020/12/19 09:14:12;;;;;;;6.25;5.63;;;7.40;99.90;;;;;;5115950;27;20253;-80
2020/12/19 09:16:48;;;;;;;6.55;5.25;;;7.40;99.90;;;;;;5133031;27;20216;-80
2020/12/19 09:19:15;;;;;;;11.85;7.65;;;7.50;99.90;;;;;;5123151;27;20207;-79
2020/12/19 09:21:52;;;;;;;8.50;7.18;;;7.70;99.90;;;;;;5120283;27;20241;-79
2020/12/19 09:24:18;;;;;;;11.27;8.40;;;7.90;99.90;;;;;;5131330;27;20437;-80
2020/12/19 09:26:44;;;;;;;8.25;6.85;;;7.90;99.90;;;;;;5135658;27;20200;-85
2020/12/19 09:29:11;;;;;;;10.75;6.45;;;8.00;99.90;;;;;;5116071;27;20585;-81
2020/12/19 09:31:37;;;;;;;12.25;8.18;;;8.10;99.90;;;;;;5114725;27;20199;-82
2020/12/19 09:34:04;;;;;;;8.88;6.47;;;8.20;99.90;;;;;;5128546;27;20207;-79
2020/12/19 09:36:30;;;;;;;7.43;6.68;;;8.20;99.90;;;;;;5121473;27;20208;-81
2020/12/19 09:38:57;;;;;;;11.10;6.55;;;8.20;99.90;;;;;;5129422;27;20196;-81
2020/12/19 09:41:23;;;;;;;7.18;6.28;;;8.20;99.90;;;;;;5116982;27;20180;-80
2020/12/19 09:43:49;;;;;;;6.05;5.45;;;8.20;99.90;;;;;;5116189;27;20223;-81
2020/12/19 09:46:16;;;;;;;8.60;6.80;;;8.20;99.90;;;;;;5113029;27;20528;-81
2020/12/19 09:48:42;;;;;;;7.30;5.50;;;8.20;99.90;;;;;;5112818;28;20193;-81
2020/12/19 09:51:12;;;;;;;6.93;5.82;;;8.30;99.90;;;;;;5112360;28;20254;-82
2020/12/19 09:53:38;;;;;;;6.70;6.00;;;8.20;99.90;;;;;;5115110;28;20200;-81
2020/12/19 09:56:06;;;;;;;9.32;5.65;;;8.20;99.90;;;;;;5120672;27;20274;-81
2020/12/19 09:58:32;;;;;;;6.45;5.75;;;8.20;99.90;;;;;;5132231;27;20616;-81
2020/12/19 10:00:58;;;;;;;9.18;6.80;;;8.30;99.90;;;;;;5114779;27;20189;-81
2020/12/19 10:03:24;;;;;;;7.97;6.00;;;8.30;99.90;;;;;;5123693;27;20207;-81
2020/12/19 10:05:51;;;;;;;7.03;6.32;;;8.40;99.90;;;;;;5112400;28;20208;-81
2020/12/19 10:08:17;;;;;;;5.35;4.85;;;8.30;99.90;;;;;;5112866;28;20209;-81
2020/12/19 10:10:44;;;;;;;7.05;5.20;;;8.30;99.90;;;;;;5111217;28;20268;-80
2020/12/19 10:13:11;;;;;;;7.18;4.95;;;8.30;99.90;;;;;;5112242;28;20193;-80
2020/12/19 10:15:38;;;;;;;6.55;5.05;;;8.30;99.90;;;;;;5112206;28;20216;-81
2020/12/19 10:18:04;;;;;;;6.05;4.80;;;8.30;99.90;;;;;;5112289;28;20326;-81
2020/12/19 10:20:30;;;;;;;7.65;6.85;;;8.30;99.90;;;;;;5111998;28;20200;-80
2020/12/19 10:22:57;;;;;;;7.57;6.25;;;8.30;99.90;;;;;;5112176;28;20193;-80
2020/12/19 10:25:23;;;;;;;12.35;5.85;;;8.30;99.90;;;;;;5111703;28;20317;-80
2020/12/19 10:27:49;;;;;;;6.75;5.70;;;8.30;99.90;;;;;;5112086;28;20205;-80
2020/12/19 10:30:16;;;;;;;6.30;4.85;;;8.30;99.90;;;;;;5112411;28;20205;-81
2020/12/19 10:32:43;;;;;;;6.60;6.00;;;8.30;99.90;;;;;;5116459;28;20204;-80
2020/12/19 10:35:09;;;;;;;5.85;5.25;;;8.40;99.90;;;;;;5114530;28;20220;-80
2020/12/19 10:37:36;;;;;;;6.95;5.72;;;8.40;99.90;;;;;;5128636;27;20188;-80
2020/12/19 10:40:03;;;;;;;6.22;5.00;;;8.40;99.90;;;;;;5132600;27;20239;-80
2020/12/19 10:42:29;;;;;;;5.63;4.85;;;8.40;99.90;;;;;;5119465;27;20218;-79
2020/12/19 10:44:55;;;;;;;5.88;4.60;;;8.40;99.90;;;;;;5112162;28;20647;-81
2020/12/19 10:47:23;;;;;;;5.68;4.95;;;8.40;99.90;;;;;;5123918;27;20204;-80
2020/12/19 10:49:51;;;;;;;5.68;4.32;;;8.40;99.90;;;;;;5111980;28;20197;-80
2020/12/19 10:52:17;;;;;;;5.10;4.60;;;8.40;99.90;;;;;;5121257;28;20188;-81
2020/12/19 10:54:44;;;;;;;7.35;4.78;;;8.40;99.90;;;;;;5124265;27;20196;-81
2020/12/19 10:57:10;;;;;;;10.82;5.07;;;8.50;99.90;;;;;;5121681;27;20269;-80
2020/12/19 10:59:37;;;;;;;4.88;4.32;;;8.50;99.90;;;;;;5131640;27;20188;-81
2020/12/19 11:02:03;;;;;;;5.55;4.22;;;8.50;99.90;;;;;;5132100;27;20192;-81
2020/12/19 11:04:30;;;;;;;6.00;5.40;;;8.50;99.90;;;;;;5131489;27;20200;-81
2020/12/19 11:06:56;;;;;;;8.18;6.75;;;8.50;99.90;;;;;;5114999;27;20185;-81
2020/12/19 11:09:22;;;;;;;5.07;4.45;;;8.50;99.90;;;;;;5126513;27;20248;-77
2020/12/19 11:11:53;;;;;;;6.05;4.55;;;8.50;99.90;;;;;;5134793;27;20799;-77
2020/12/19 11:14:19;;;;;;;5.55;4.55;;;8.50;99.90;;;;;;5135969;27;20232;-77
2020/12/19 11:16:46;;;;;;;4.90;4.05;;;8.50;99.90;;;;;;5119863;27;20217;-78
2020/12/19 11:19:12;;;;;;;4.57;3.60;;;8.50;99.90;;;;;;5126001;27;20239;-77
2020/12/19 11:21:43;;;;;;;5.82;4.43;;;8.50;99.90;;;;;;5123320;27;20249;-78
2020/12/19 11:24:11;;;;;;;5.28;4.25;;;8.60;99.90;;;;;;5115380;28;20532;-78
2020/12/19 11:26:37;;;;;;;4.97;4.10;;;8.60;99.90;;;;;;5115155;27;20193;-78
2020/12/19 11:29:04;;;;;;;4.78;3.88;;;8.60;99.90;;;;;;5124597;27;20198;-79
2020/12/19 11:31:30;;;;;;;5.15;3.92;;;8.60;99.90;;;;;;5135347;27;20196;-78
2020/12/19 11:33:57;;;;;;;6.47;4.28;;;8.60;99.90;;;;;;5135586;27;20200;-79
2020/12/19 11:36:23;;;;;;;5.70;4.68;;;8.60;99.90;;;;;;5133459;27;20758;-77
2020/12/19 11:38:51;;;;;;;3.95;3.55;;;8.70;99.90;;;;;;5130685;27;20196;-77
2020/12/19 11:41:22;;;;;;;7.13;4.53;;;8.70;99.90;;;;;;5115423;27;20652;-83
2020/12/19 11:43:48;;;;;;;4.72;4.03;;;8.70;99.90;;;;;;5115351;28;20197;-84
2020/12/19 11:46:14;;;;;;;5.07;4.10;;;8.70;99.90;;;;;;5115461;27;20223;-82
2020/12/19 11:48:40;;;;;;;3.33;3.03;;;8.70;99.90;;;;;;5129040;27;20552;-77
2020/12/19 11:51:07;;;;;;;5.45;3.95;;;8.80;99.90;;;;;;5135636;27;20200;-76
2020/12/19 11:53:33;;;;;;;3.75;3.40;;;8.70;99.90;;;;;;5135484;27;20207;-78
2020/12/19 11:56:03;;;;;;;5.00;4.50;;;8.80;99.90;;;;;;5133631;27;20216;-77
2020/12/19 11:58:29;;;;;;;4.25;3.85;;;8.80;99.90;;;;;;5125429;27;20193;-77
2020/12/19 12:00:55;;;;;;;4.22;3.45;;;8.80;99.90;;;;;;5134983;27;20687;-77
2020/12/19 12:03:21;;;;;;;7.15;3.50;;;8.80;99.90;;;;;;5133104;27;20192;-77
2020/12/19 12:05:48;;;;;;;14.50;4.53;;;8.80;99.90;;;;;;5120657;27;20205;-77
2020/12/19 12:08:14;;;;;;;3.70;3.40;;;8.90;99.90;;;;;;5119222;27;20192;-78
2020/12/19 12:10:40;;;;;;;5.32;3.97;;;8.80;99.90;;;;;;5126916;27;20275;-78
2020/12/19 12:13:07;;;;;;;4.30;3.90;;;8.80;99.90;;;;;;5135084;27;20234;-77
2020/12/19 12:15:34;;;;;;;5.70;4.47;;;8.80;99.90;;;;;;5133473;27;20276;-79
2020/12/19 12:18:00;;;;;;;4.03;3.15;;;8.80;99.90;;;;;;5127472;27;20196;-80
2020/12/19 12:20:26;;;;;;;4.30;3.25;;;8.80;99.90;;;;;;5132577;27;20206;-79
2020/12/19 12:22:52;;;;;;;5.03;3.55;;;8.80;99.90;;;;;;5132694;27;20208;-78
2020/12/19 12:25:19;;;;;;;5.22;3.35;;;8.80;99.90;;;;;;5134854;27;20192;-79
2020/12/19 12:27:45;;;;;;;4.88;3.03;;;8.90;99.90;;;;;;5134179;27;20200;-79
2020/12/19 12:30:13;;;;;;;3.65;3.03;;;8.90;99.90;;;;;;5130417;27;20204;-80
2020/12/19 12:32:39;;;;;;;5.03;3.80;;;8.90;99.90;;;;;;5114205;28;20196;-81
2020/12/19 12:35:05;;;;;;;3.85;3.45;;;8.90;99.90;;;;;;5122772;27;20220;-80
2020/12/19 12:37:31;;;;;;;3.95;3.10;;;8.90;99.90;;;;;;5129623;27;20237;-80
2020/12/19 12:39:58;;;;;;;4.65;3.05;;;8.90;99.90;;;;;;5125147;27;20690;-82
2020/12/19 12:42:25;;;;;;;4.30;3.60;;;8.90;99.90;;;;;;5134406;27;20196;-80
2020/12/19 12:44:51;;;;;;;3.88;3.00;;;9.00;99.90;;;;;;5134556;27;20192;-77
2020/12/19 12:47:19;;;;;;;2.70;2.50;;;9.00;99.90;;;;;;5114149;27;20648;-80
2020/12/19 12:49:45;;;;;;;3.30;3.00;;;9.00;99.90;;;;;;5123083;27;20651;-79
2020/12/19 12:52:12;;;;;;;4.40;3.45;;;9.00;99.90;;;;;;5124504;27;20216;-79
2020/12/19 12:54:38;;;;;;;3.60;3.30;;;9.00;99.90;;;;;;5113398;28;20703;-79
2020/12/19 12:57:05;;;;;;;3.15;2.67;;;9.00;99.90;;;;;;5121678;27;20211;-80
2020/12/19 12:59:31;;;;;;;3.33;3.03;;;9.00;99.90;;;;;;5134374;27;20192;-81